Terminal Aerodrome Forecast
Issued by NWS Wilmington, NC

Home | Current Version | Previous Version | Text Only | Print | Product List | Glossary On
Versions: 1 2 3 4 5 6 7 8 9 10 11 12 13 14
231
FTUS42 KILM 142330
TAFFLO
TAF
KFLO 142330Z 1500/1524 VRB02KT P6SM SCT250
     FM151500 26006KT P6SM SCT250
     FM152100 27011KT P6SM SKC=

USA.gov is the U.S. government's official web portal to all federal, state and local government web resources and services.